Time;durP1;ratioP1;P1;durP2;ratioP2;P2;SDS_P1;SDS_P2;PMS_P1;PMS_P2;Temp;Humidity;BMP_temperature;BMP_pressure;BME280_temperature;BME280_humidity;BME280_pressure;Samples;Min_cycle;Max_cycle;Signal;HPM_P1;HPM_P2
2021/03/24 00:00:39;;;;;;;17.23;8.73;;;8.50;99.90;;;;;;4977726;28;20023;-76
2021/03/24 00:03:05;;;;;;;16.63;8.15;;;8.60;99.90;;;;;;4970714;28;20513;-77
2021/03/24 00:05:34;;;;;;;18.80;8.35;;;8.50;99.90;;;;;;4974118;28;20443;-76
2021/03/24 00:08:00;;;;;;;17.00;9.13;;;8.50;99.90;;;;;;4972394;28;20018;-76
2021/03/24 00:10:27;;;;;;;16.23;8.38;;;8.50;99.90;;;;;;4973584;28;20062;-77
2021/03/24 00:12:57;;;;;;;18.45;8.50;;;8.50;99.90;;;;;;4972086;28;20031;-76
2021/03/24 00:15:35;;;;;;;14.65;7.85;;;8.60;99.90;;;;;;4973224;28;20029;-76
2021/03/24 00:18:02;;;;;;;18.10;8.05;;;8.50;99.90;;;;;;4973787;28;20050;-76
2021/03/24 00:20:34;;;;;;;19.10;8.50;;;8.50;99.90;;;;;;4974616;28;20039;-76
2021/03/24 00:23:00;;;;;;;18.35;8.38;;;8.50;99.90;;;;;;4971728;28;20022;-76
2021/03/24 00:25:26;;;;;;;15.95;7.38;;;8.40;99.90;;;;;;4974895;28;20042;-76
2021/03/24 00:27:52;;;;;;;13.80;8.27;;;8.40;99.90;;;;;;4974220;28;20081;-76
2021/03/24 00:30:22;;;;;;;18.05;7.68;;;8.50;99.90;;;;;;4975764;28;20019;-77
2021/03/24 00:32:48;;;;;;;14.63;7.95;;;8.50;99.90;;;;;;4971822;28;20054;-76
2021/03/24 00:35:14;;;;;;;16.15;8.20;;;8.50;99.90;;;;;;4972119;28;20037;-76
2021/03/24 00:37:40;;;;;;;16.55;7.63;;;8.50;99.90;;;;;;4976182;28;20106;-76
2021/03/24 00:40:09;;;;;;;13.23;8.05;;;8.50;99.90;;;;;;4970683;28;21464;-76
2021/03/24 00:42:35;;;;;;;16.02;7.53;;;8.50;99.90;;;;;;4972060;28;20023;-75
2021/03/24 00:45:02;;;;;;;17.05;8.40;;;8.50;99.90;;;;;;4971082;28;20105;-76
2021/03/24 00:47:27;;;;;;;14.55;7.65;;;8.50;99.90;;;;;;4977700;28;20019;-76
2021/03/24 00:49:53;;;;;;;14.65;8.00;;;8.50;99.90;;;;;;4974188;28;20295;-76
2021/03/24 00:52:18;;;;;;;16.33;7.85;;;8.50;99.90;;;;;;4969554;28;20401;-76
2021/03/24 00:54:44;;;;;;;19.58;7.68;;;8.50;99.90;;;;;;4976042;28;20065;-75
2021/03/24 00:57:09;;;;;;;16.08;7.93;;;8.50;99.90;;;;;;4976578;28;20065;-75
2021/03/24 00:59:35;;;;;;;17.40;7.93;;;8.50;99.90;;;;;;4976918;28;20860;-75
2021/03/24 01:02:00;;;;;;;17.23;8.00;;;8.50;99.90;;;;;;4972460;28;20531;-76
2021/03/24 01:04:26;;;;;;;17.65;7.45;;;8.50;99.90;;;;;;4973054;28;20030;-76
2021/03/24 01:06:51;;;;;;;18.52;7.40;;;8.40;99.90;;;;;;4974543;28;20123;-75
2021/03/24 01:09:17;;;;;;;13.63;7.15;;;8.40;99.90;;;;;;4974334;28;20426;-75
2021/03/24 01:11:42;;;;;;;20.65;7.68;;;8.40;99.90;;;;;;4973995;28;20101;-76
2021/03/24 01:14:09;;;;;;;15.98;7.25;;;8.40;99.90;;;;;;4979402;28;20034;-75
2021/03/24 01:16:36;;;;;;;14.70;7.47;;;8.40;99.90;;;;;;4968913;28;20022;-75
2021/03/24 01:19:02;;;;;;;16.40;7.63;;;8.50;99.90;;;;;;4975613;28;20027;-76
2021/03/24 01:21:27;;;;;;;17.63;7.22;;;8.40;99.90;;;;;;4976196;28;20038;-75
2021/03/24 01:23:56;;;;;;;15.95;7.07;;;8.40;99.90;;;;;;4973265;28;20517;-75
2021/03/24 01:26:22;;;;;;;12.23;7.18;;;8.40;99.90;;;;;;4975819;28;20351;-75
2021/03/24 01:28:57;;;;;;;15.15;7.53;;;8.40;99.90;;;;;;4967812;28;20031;-75
2021/03/24 01:31:25;;;;;;;16.23;7.53;;;8.50;99.90;;;;;;4974052;28;20133;-75
2021/03/24 01:33:51;;;;;;;17.77;7.35;;;8.40;99.90;;;;;;4976947;28;20504;-75
2021/03/24 01:36:17;;;;;;;14.50;7.28;;;8.40;99.90;;;;;;4984829;28;20105;-75
2021/03/24 01:38:42;;;;;;;14.45;7.30;;;8.50;99.90;;;;;;4974766;28;20539;-75
2021/03/24 01:41:08;;;;;;;15.93;7.53;;;8.40;99.90;;;;;;4974712;28;20037;-75
2021/03/24 01:43:35;;;;;;;17.55;8.23;;;8.40;99.90;;;;;;4982399;28;20018;-75
2021/03/24 01:46:19;;;;;;;14.35;6.93;;;8.40;99.90;;;;;;4976199;28;20050;-75
2021/03/24 01:49:08;;;;;;;14.02;6.82;;;8.50;99.90;;;;;;4982341;28;20022;-77
2021/03/24 01:51:43;;;;;;;15.57;7.47;;;8.50;99.90;;;;;;4979767;28;20031;-75
2021/03/24 01:54:12;;;;;;;13.38;7.15;;;8.50;99.90;;;;;;4974622;28;20117;-75
2021/03/24 01:56:41;;;;;;;15.18;6.53;;;8.40;99.90;;;;;;4979750;28;20049;-75
2021/03/24 01:59:08;;;;;;;12.93;6.70;;;8.30;99.90;;;;;;4975689;28;20080;-76
2021/03/24 02:01:33;;;;;;;17.25;8.13;;;8.50;99.90;;;;;;4975103;28;20692;-75
2021/03/24 02:03:59;;;;;;;12.02;6.80;;;8.50;99.90;;;;;;4975011;28;20027;-75
2021/03/24 02:06:36;;;;;;;17.05;7.30;;;8.50;99.90;;;;;;4981018;28;20026;-75
2021/03/24 02:09:49;;;;;;;14.05;7.28;;;8.50;99.90;;;;;;4976899;28;20076;-75
2021/03/24 02:12:28;;;;;;;14.65;7.28;;;8.50;99.90;;;;;;4971085;28;20031;-76
2021/03/24 02:14:57;;;;;;;11.73;7.28;;;8.40;99.90;;;;;;4976569;28;20571;-75
2021/03/24 02:17:28;;;;;;;13.77;7.25;;;8.40;99.90;;;;;;4979160;28;20049;-75
2021/03/24 02:19:59;;;;;;;19.15;7.00;;;8.50;99.90;;;;;;4975724;28;20038;-75
2021/03/24 02:22:27;;;;;;;;;;;8.40;99.90;;;;;;4973351;28;20037;-75
2021/03/24 02:25:04;;;;;;;14.43;6.65;;;8.40;99.90;;;;;;4978713;28;19916;-75
2021/03/24 02:27:42;;;;;;;16.15;7.00;;;8.30;99.90;;;;;;4976618;28;20126;-75
2021/03/24 02:30:13;;;;;;;14.45;7.03;;;8.40;99.90;;;;;;4968874;28;20023;-75
2021/03/24 02:32:44;;;;;;;14.40;7.22;;;8.30;99.90;;;;;;4978587;28;20046;-75
2021/03/24 02:35:17;;;;;;;17.77;7.72;;;8.30;99.90;;;;;;4978754;28;20029;-75
2021/03/24 02:37:44;;;;;;;15.60;7.00;;;8.30;99.90;;;;;;4974493;28;20026;-75
2021/03/24 02:40:15;;;;;;;14.55;7.20;;;8.30;99.90;;;;;;4973882;28;20031;-76
2021/03/24 02:42:43;;;;;;;13.40;7.15;;;8.30;99.90;;;;;;4975847;28;20034;-75
2021/03/24 02:45:11;;;;;;;13.20;6.97;;;8.40;99.90;;;;;;4970688;28;20026;-76
2021/03/24 02:47:39;;;;;;;18.17;6.88;;;8.30;99.90;;;;;;4978685;28;20092;-75
2021/03/24 02:50:09;;;;;;;15.90;6.55;;;8.40;99.90;;;;;;4981064;28;20023;-75
2021/03/24 02:52:35;;;;;;;16.48;6.95;;;8.40;99.90;;;;;;4974546;28;20072;-75
2021/03/24 02:55:03;;;;;;;12.10;6.53;;;8.30;99.90;;;;;;4981195;28;20026;-76
2021/03/24 02:57:28;;;;;;;17.67;7.22;;;8.30;99.90;;;;;;4982044;28;21424;-75
2021/03/24 02:59:54;;;;;;;12.68;6.88;;;8.30;99.90;;;;;;4979148;28;20096;-75
2021/03/24 03:02:24;;;;;;;14.55;7.40;;;8.30;99.90;;;;;;4971968;28;20026;-75
2021/03/24 03:04:59;;;;;;;14.18;7.07;;;8.30;99.90;;;;;;4977267;28;20027;-75
2021/03/24 03:07:31;;;;;;;13.65;7.47;;;8.40;99.90;;;;;;4972922;28;20027;-75
2021/03/24 03:10:08;;;;;;;11.63;6.65;;;8.30;99.90;;;;;;4978458;28;20121;-75
2021/03/24 03:12:39;;;;;;;12.73;7.00;;;8.30;99.90;;;;;;4976013;28;20040;-76
2021/03/24 03:15:23;;;;;;;14.05;7.10;;;8.40;99.90;;;;;;4976520;28;20129;-75
2021/03/24 03:17:54;;;;;;;19.65;7.18;;;8.30;99.90;;;;;;4976766;28;20049;-76
2021/03/24 03:20:28;;;;;;;13.70;7.10;;;8.40;99.90;;;;;;4978686;28;20031;-75
2021/03/24 03:23:06;;;;;;;15.63;7.53;;;8.40;99.90;;;;;;4981462;28;20677;-75
2021/03/24 03:25:35;;;;;;;14.40;7.13;;;8.40;99.90;;;;;;4984316;28;20034;-75
2021/03/24 03:28:05;;;;;;;19.15;7.60;;;8.30;99.90;;;;;;4970650;28;20438;-75
2021/03/24 03:30:33;;;;;;;14.60;7.65;;;8.20;99.90;;;;;;4971445;28;20118;-76
2021/03/24 03:33:03;;;;;;;18.95;8.23;;;8.20;99.90;;;;;;4980444;28;20055;-75
2021/03/24 03:35:30;;;;;;;16.50;8.15;;;8.30;99.90;;;;;;4978147;28;20045;-76
2021/03/24 03:38:00;;;;;;;15.20;7.40;;;8.30;99.90;;;;;;4983267;28;20366;-75
2021/03/24 03:40:28;;;;;;;15.05;7.25;;;8.30;99.90;;;;;;4981450;28;20018;-75
2021/03/24 03:42:55;;;;;;;14.80;7.25;;;8.30;99.90;;;;;;4985526;28;20045;-75
2021/03/24 03:45:29;;;;;;;20.77;7.80;;;8.20;99.90;;;;;;4970521;28;20086;-75
2021/03/24 03:47:55;;;;;;;17.20;8.02;;;8.30;99.90;;;;;;4972534;28;20054;-75
2021/03/24 03:50:24;;;;;;;14.85;7.63;;;8.30;99.90;;;;;;4975610;28;20061;-75
2021/03/24 03:53:31;;;;;;;12.30;7.60;;;8.30;99.90;;;;;;4972708;28;20035;-75
2021/03/24 03:55:59;;;;;;;14.32;7.38;;;8.30;99.90;;;;;;4968612;28;20043;-75
2021/03/24 03:58:46;;;;;;;14.77;7.15;;;8.30;99.90;;;;;;4979192;28;20473;-75
2021/03/24 04:01:24;;;;;;;15.82;7.70;;;8.20;99.90;;;;;;4979392;28;20054;-75
2021/03/24 04:03:57;;;;;;;17.80;7.47;;;8.20;99.90;;;;;;4979217;28;20110;-75
2021/03/24 04:06:34;;;;;;;15.63;7.10;;;8.20;99.90;;;;;;4976258;28;20023;-75
2021/03/24 04:09:00;;;;;;;15.77;7.00;;;8.20;99.90;;;;;;4975153;28;20041;-75
2021/03/24 04:11:30;;;;;;;13.43;7.32;;;8.20;99.90;;;;;;4970009;28;20026;-75
2021/03/24 04:13:59;;;;;;;15.00;7.82;;;8.30;99.90;;;;;;4976811;28;20038;-75
2021/03/24 04:16:26;;;;;;;14.48;6.82;;;8.20;99.90;;;;;;4977638;28;20030;-75
2021/03/24 04:19:02;;;;;;;16.83;7.28;;;8.30;99.90;;;;;;4972257;28;20106;-75
2021/03/24 04:21:30;;;;;;;16.33;8.02;;;8.30;99.90;;;;;;4971851;28;20033;-75
2021/03/24 04:24:07;;;;;;;16.75;7.95;;;8.30;99.90;;;;;;4975718;28;20049;-75
2021/03/24 04:26:40;;;;;;;13.50;7.22;;;8.30;99.90;;;;;;4975017;28;20030;-75
2021/03/24 04:29:23;;;;;;;16.85;7.88;;;8.30;99.90;;;;;;4976410;28;20822;-75
2021/03/24 04:31:53;;;;;;;13.57;7.45;;;8.20;99.90;;;;;;4969799;28;20035;-75
2021/03/24 04:34:20;;;;;;;16.05;7.32;;;8.30;99.90;;;;;;4981940;28;20429;-75
2021/03/24 04:37:28;;;;;;;17.33;8.02;;;8.30;99.90;;;;;;4977354;28;20033;-75
2021/03/24 04:40:07;;;;;;;15.13;8.20;;;8.30;99.90;;;;;;4917256;29;20804;-75
2021/03/24 04:42:54;;;;;;;13.48;7.45;;;8.20;99.90;;;;;;4966463;28;20034;-75
2021/03/24 04:45:34;;;;;;;16.63;7.70;;;8.20;99.90;;;;;;4975938;28;20034;-75
2021/03/24 04:48:02;;;;;;;14.40;7.22;;;8.10;99.90;;;;;;4969655;28;20026;-75
2021/03/24 04:50:52;;;;;;;19.05;8.55;;;8.10;99.90;;;;;;4970722;28;20030;-75
2021/03/24 04:53:19;;;;;;;12.95;6.50;;;8.10;99.90;;;;;;4957165;28;20047;-75
2021/03/24 04:55:46;;;;;;;13.43;7.20;;;8.10;99.90;;;;;;4971155;28;20607;-75
2021/03/24 04:58:25;;;;;;;16.58;8.48;;;8.10;99.90;;;;;;4973859;28;20037;-75
2021/03/24 05:00:57;;;;;;;15.50;7.32;;;8.10;99.90;;;;;;4969687;28;20113;-75
2021/03/24 05:03:26;;;;;;;15.98;8.30;;;7.90;99.90;;;;;;4980089;28;20172;-75
2021/03/24 05:05:55;;;;;;;14.88;7.65;;;8.00;99.90;;;;;;4972554;28;20031;-76
2021/03/24 05:08:40;;;;;;;13.55;7.28;;;7.90;99.90;;;;;;4972400;28;20119;-75
2021/03/24 05:11:45;;;;;;;20.17;8.65;;;7.80;99.90;;;;;;4977709;28;20030;-75
2021/03/24 05:14:51;;;;;;;16.40;7.28;;;7.80;99.90;;;;;;4971702;28;20782;-76
2021/03/24 05:17:24;;;;;;;14.15;8.27;;;7.90;99.90;;;;;;4975743;28;20231;-75
2021/03/24 05:19:56;;;;;;;14.55;7.63;;;7.90;99.90;;;;;;4972952;28;20027;-75
2021/03/24 05:22:33;;;;;;;19.83;8.80;;;7.90;99.90;;;;;;4971361;28;20072;-76
2021/03/24 05:25:20;;;;;;;20.05;8.68;;;7.90;99.90;;;;;;4980131;28;20701;-76
2021/03/24 05:27:51;;;;;;;17.08;8.40;;;7.90;99.90;;;;;;4982622;28;20037;-75
2021/03/24 05:30:17;;;;;;;;;;;7.90;99.90;;;;;;4972813;28;20033;-75
2021/03/24 05:32:46;;;;;;;16.30;7.68;;;8.00;99.90;;;;;;4978975;28;20006;-76
2021/03/24 05:35:48;;;;;;;16.00;8.23;;;8.10;99.90;;;;;;4977800;28;20022;-76
2021/03/24 05:38:21;;;;;;;17.08;8.88;;;8.10;99.90;;;;;;4972235;28;20045;-75
2021/03/24 05:41:00;;;;;;;16.95;9.25;;;8.20;99.90;;;;;;4974567;28;20124;-76
2021/03/24 05:43:51;;;;;;;19.60;10.02;;;8.10;99.90;;;;;;4973533;28;20050;-76
2021/03/24 05:46:50;;;;;;;16.15;8.45;;;8.10;99.90;;;;;;4973465;28;20412;-75
2021/03/24 05:49:34;;;;;;;18.92;8.77;;;8.20;99.90;;;;;;4978839;28;20033;-76
2021/03/24 05:52:16;;;;;;;19.95;9.63;;;8.20;99.90;;;;;;4974030;28;20034;-75
2021/03/24 05:55:00;;;;;;;18.60;9.85;;;8.30;99.90;;;;;;4971579;28;20472;-76
2021/03/24 05:57:38;;;;;;;27.65;9.88;;;8.30;99.90;;;;;;4969734;28;20160;-76
2021/03/24 06:00:25;;;;;;;22.42;10.25;;;8.30;99.90;;;;;;4974358;28;20422;-76
2021/03/24 06:03:04;;;;;;;19.83;9.68;;;8.40;99.90;;;;;;4971200;28;20038;-76
2021/03/24 06:05:51;;;;;;;25.52;10.30;;;8.40;99.90;;;;;;4978449;28;20033;-76
2021/03/24 06:08:42;;;;;;;21.23;10.75;;;8.40;99.90;;;;;;4969473;28;20053;-76
2021/03/24 06:11:41;;;;;;;20.83;11.13;;;8.40;99.90;;;;;;4971465;28;20050;-76
2021/03/24 06:14:30;;;;;;;24.95;11.23;;;8.50;99.90;;;;;;4938943;28;20134;-76
2021/03/24 06:17:08;;;;;;;24.58;11.57;;;8.50;99.90;;;;;;4969912;28;20057;-76
2021/03/24 06:20:11;;;;;;;25.45;12.45;;;8.50;99.90;;;;;;4977401;28;20054;-76
2021/03/24 06:23:12;;;;;;;23.55;10.80;;;8.60;99.90;;;;;;4974136;28;20513;-79
2021/03/24 06:25:54;;;;;;;22.52;11.35;;;8.60;99.90;;;;;;4977050;28;20465;-79
2021/03/24 06:28:44;;;;;;;29.88;13.05;;;8.60;99.90;;;;;;4979417;28;20035;-78
2021/03/24 06:31:21;;;;;;;26.70;12.98;;;8.60;99.90;;;;;;4976031;28;20030;-76
2021/03/24 06:34:05;;;;;;;31.00;13.70;;;8.70;99.90;;;;;;4976669;28;20045;-78
2021/03/24 06:36:58;;;;;;;28.27;12.95;;;8.70;99.90;;;;;;4982156;28;20023;-76
2021/03/24 06:39:30;;;;;;;28.38;13.95;;;8.70;99.90;;;;;;4980045;28;20026;-77
2021/03/24 06:42:08;;;;;;;29.38;13.95;;;8.70;99.90;;;;;;4975081;28;20582;-75
2021/03/24 06:45:01;;;;;;;28.23;15.05;;;8.70;99.90;;;;;;4973522;28;20023;-73
2021/03/24 06:47:52;;;;;;;28.25;13.68;;;8.80;99.90;;;;;;4974754;28;20379;-73
2021/03/24 06:50:33;;;;;;;32.38;15.88;;;8.70;99.90;;;;;;4973627;28;20023;-74
2021/03/24 06:53:36;;;;;;;31.00;15.23;;;8.80;99.90;;;;;;4972207;28;20218;-74
2021/03/24 06:56:31;;;;;;;36.03;15.65;;;8.80;99.90;;;;;;4974128;28;20457;-73
2021/03/24 06:59:35;;;;;;;31.17;16.33;;;8.80;99.90;;;;;;4981088;28;20058;-74
2021/03/24 07:02:13;;;;;;;40.90;17.48;;;8.70;99.90;;;;;;4974858;28;20037;-73
2021/03/24 07:04:44;;;;;;;35.67;17.02;;;8.80;99.90;;;;;;4977341;28;20470;-73
2021/03/24 07:07:25;;;;;;;37.00;16.85;;;8.90;99.90;;;;;;4977574;28;20425;-73
2021/03/24 07:10:01;;;;;;;37.28;18.30;;;8.90;99.90;;;;;;4973733;28;20029;-74
2021/03/24 07:12:46;;;;;;;36.03;17.77;;;8.90;99.90;;;;;;4976059;28;20039;-75
2021/03/24 07:15:38;;;;;;;39.97;18.88;;;8.90;99.90;;;;;;4977961;28;20176;-74
2021/03/24 07:18:26;;;;;;;35.45;18.48;;;9.00;99.90;;;;;;4973021;28;20030;-76
2021/03/24 07:21:26;;;;;;;43.25;18.88;;;8.90;99.90;;;;;;4973453;28;20478;-74
2021/03/24 07:24:37;;;;;;;43.92;19.77;;;8.90;99.90;;;;;;4977991;28;20026;-75
2021/03/24 07:27:05;;;;;;;40.90;19.05;;;9.00;99.90;;;;;;4950718;28;20042;-75
2021/03/24 07:30:07;;;;;;;39.75;20.02;;;9.10;99.90;;;;;;4976973;28;20030;-76
2021/03/24 07:32:38;;;;;;;44.83;21.02;;;9.00;99.90;;;;;;4975723;28;20055;-78
2021/03/24 07:35:14;;;;;;;40.83;19.88;;;9.10;99.90;;;;;;4976607;28;20034;-76
2021/03/24 07:38:08;;;;;;;41.92;20.52;;;9.20;99.90;;;;;;4979392;28;20023;-75
2021/03/24 07:41:15;;;;;;;38.45;20.30;;;9.20;99.90;;;;;;4967040;28;20034;-75
2021/03/24 07:44:12;;;;;;;39.80;20.65;;;9.30;99.90;;;;;;4966107;28;20046;-75
2021/03/24 07:47:02;;;;;;;41.13;20.00;;;9.20;99.90;;;;;;4967829;28;20030;-75
2021/03/24 07:50:01;;;;;;;43.37;20.07;;;9.20;99.90;;;;;;4983059;28;20038;-77
2021/03/24 07:52:37;;;;;;;41.25;19.95;;;9.10;99.90;;;;;;4982663;28;20026;-76
2021/03/24 07:55:23;;;;;;;44.67;21.13;;;9.20;99.90;;;;;;4981711;28;20070;-77
2021/03/24 07:58:32;;;;;;;46.60;20.10;;;9.30;99.90;;;;;;4980986;28;20042;-77
2021/03/24 08:01:22;;;;;;;48.88;21.48;;;9.30;99.90;;;;;;4962561;28;20066;-77
2021/03/24 08:04:14;;;;;;;43.85;20.55;;;9.40;99.90;;;;;;4979750;28;20042;-76
2021/03/24 08:07:30;;;;;;;41.92;21.13;;;9.50;99.90;;;;;;4976674;28;20027;-76
2021/03/24 08:10:16;;;;;;;41.97;21.10;;;9.60;99.70;;;;;;4920875;29;20024;-77
2021/03/24 08:12:54;;;;;;;42.50;19.85;;;9.70;99.60;;;;;;4921589;29;20035;-75
2021/03/24 08:15:56;;;;;;;43.72;20.83;;;9.80;99.10;;;;;;4960392;28;20066;-74
2021/03/24 08:18:46;;;;;;;42.25;19.85;;;9.70;98.50;;;;;;4983188;28;20030;-74
2021/03/24 08:21:16;;;;;;;47.28;20.42;;;9.70;98.50;;;;;;4968427;28;20062;-75
2021/03/24 08:23:58;;;;;;;45.53;21.00;;;9.70;98.50;;;;;;4974563;28;20034;-74
2021/03/24 08:26:43;;;;;;;42.83;20.83;;;9.70;98.40;;;;;;4978234;28;20022;-74
2021/03/24 08:29:19;;;;;;;46.90;21.67;;;9.70;98.30;;;;;;4979076;28;20091;-74
2021/03/24 08:32:16;;;;;;;45.25;21.08;;;9.80;99.00;;;;;;4979147;28;20026;-75
2021/03/24 08:35:19;;;;;;;46.40;22.38;;;9.80;98.30;;;;;;4984724;28;20288;-74
2021/03/24 08:38:05;;;;;;;52.08;22.30;;;10.00;98.00;;;;;;4989224;28;20087;-75
2021/03/24 08:40:45;;;;;;;47.03;22.13;;;10.00;97.80;;;;;;4984310;28;20556;-75
2021/03/24 08:43:24;;;;;;;49.97;22.40;;;10.00;97.70;;;;;;4976233;28;20034;-75
2021/03/24 08:45:58;;;;;;;46.67;22.80;;;10.10;97.70;;;;;;4979525;28;20026;-75
2021/03/24 08:48:45;;;;;;;45.92;22.63;;;10.20;97.60;;;;;;4983232;28;20046;-75
2021/03/24 08:51:25;;;;;;;42.80;20.92;;;10.40;96.60;;;;;;4984552;28;20022;-75
2021/03/24 08:53:56;;;;;;;47.83;22.13;;;10.50;96.00;;;;;;4982654;28;20030;-75
2021/03/24 08:56:47;;;;;;;43.80;21.52;;;10.40;95.40;;;;;;4982243;28;20447;-75
2021/03/24 08:59:36;;;;;;;45.17;21.17;;;10.40;94.70;;;;;;4981386;28;20042;-75
2021/03/24 09:02:18;;;;;;;40.63;20.95;;;10.50;94.80;;;;;;4979028;28;20151;-75
2021/03/24 09:04:59;;;;;;;44.47;22.05;;;10.60;95.30;;;;;;4983206;28;20485;-75
2021/03/24 09:07:39;;;;;;;48.38;22.20;;;10.70;93.60;;;;;;4974619;28;20042;-74
2021/03/24 09:10:20;;;;;;;49.17;21.02;;;10.70;92.80;;;;;;4975691;28;20045;-74
2021/03/24 09:12:55;;;;;;;47.43;21.47;;;10.70;92.20;;;;;;4977072;28;20026;-75
2021/03/24 09:15:36;;;;;;;40.25;21.95;;;10.70;92.10;;;;;;4986061;28;20126;-75
2021/03/24 09:18:22;;;;;;;49.13;21.52;;;10.70;91.70;;;;;;4986357;28;20097;-75
2021/03/24 09:21:12;;;;;;;40.88;20.80;;;10.70;91.70;;;;;;4985539;28;20081;-75
2021/03/24 09:24:15;;;;;;;43.53;20.50;;;10.80;91.30;;;;;;4980677;28;20030;-75
2021/03/24 09:27:29;;;;;;;48.53;21.75;;;10.90;91.10;;;;;;4986041;28;20058;-75
2021/03/24 09:30:22;;;;;;;43.58;21.30;;;10.80;90.30;;;;;;4956291;28;20448;-75
2021/03/24 09:32:57;;;;;;;44.35;21.08;;;10.90;91.40;;;;;;4982491;28;20046;-75
2021/03/24 09:35:47;;;;;;;43.97;21.70;;;10.90;90.70;;;;;;4980271;28;20058;-75
2021/03/24 09:38:20;;;;;;;45.33;21.25;;;10.90;91.20;;;;;;4979804;28;20034;-76
2021/03/24 09:40:51;;;;;;;42.75;21.35;;;11.00;90.40;;;;;;4979822;28;20030;-75
2021/03/24 09:43:34;;;;;;;45.42;22.10;;;11.00;89.40;;;;;;4977899;28;20057;-75
2021/03/24 09:46:05;;;;;;;44.95;21.05;;;11.10;88.70;;;;;;4970406;28;20113;-75
2021/03/24 09:48:47;;;;;;;47.93;22.60;;;11.00;87.50;;;;;;4982163;28;20081;-75
2021/03/24 09:51:23;;;;;;;43.95;20.73;;;11.00;87.60;;;;;;4980203;28;20092;-75
2021/03/24 09:53:50;;;;;;;54.50;21.67;;;11.10;85.90;;;;;;4981231;28;20066;-75
2021/03/24 09:56:21;;;;;;;46.80;22.15;;;11.10;86.60;;;;;;4981795;28;20030;-75
2021/03/24 09:59:13;;;;;;;46.28;21.63;;;11.10;88.10;;;;;;4987760;28;20088;-75
2021/03/24 10:02:00;;;;;;;41.97;20.58;;;11.10;87.00;;;;;;4986724;28;20465;-75
2021/03/24 10:04:51;;;;;;;46.63;21.83;;;11.20;87.20;;;;;;4984321;28;20031;-76
2021/03/24 10:07:27;;;;;;;43.60;21.20;;;11.10;86.80;;;;;;4982654;28;20031;-75
2021/03/24 10:10:11;;;;;;;46.50;21.90;;;11.10;86.60;;;;;;4980840;28;20503;-76
2021/03/24 10:12:54;;;;;;;44.80;21.35;;;11.10;87.60;;;;;;4983788;28;20027;-76
2021/03/24 10:15:35;;;;;;;44.83;22.15;;;11.20;86.00;;;;;;4985714;28;20054;-75
2021/03/24 10:18:25;;;;;;;51.83;21.88;;;11.40;85.40;;;;;;4982839;28;20026;-76
2021/03/24 10:21:03;;;;;;;46.58;22.10;;;11.40;87.40;;;;;;4982889;28;20045;-75
2021/03/24 10:23:58;;;;;;;47.92;22.67;;;11.40;83.80;;;;;;4987496;28;20034;-76
2021/03/24 10:26:32;;;;;;;47.95;22.08;;;11.40;85.00;;;;;;4978907;28;20034;-88
2021/03/24 10:29:07;;;;;;;49.03;22.20;;;11.40;85.20;;;;;;4985810;28;20034;-78
2021/03/24 10:31:39;;;;;;;48.05;22.40;;;11.50;83.90;;;;;;4978738;28;20117;-77
2021/03/24 10:34:14;;;;;;;46.97;21.95;;;11.50;83.00;;;;;;4981939;28;20113;-78
2021/03/24 10:37:01;;;;;;;52.42;22.25;;;11.70;83.60;;;;;;4983127;28;20038;-84
2021/03/24 10:39:37;;;;;;;47.55;22.13;;;11.70;83.30;;;;;;4985214;28;20061;-76
2021/03/24 10:42:23;;;;;;;48.33;22.30;;;11.70;82.40;;;;;;4985724;28;20551;-76
2021/03/24 10:44:56;;;;;;;48.58;22.77;;;11.70;82.90;;;;;;4978586;28;20224;-76
2021/03/24 10:47:49;;;;;;;45.30;21.10;;;11.60;84.60;;;;;;4981525;28;20685;-76
2021/03/24 10:50:24;;;;;;;42.15;19.85;;;11.70;83.10;;;;;;4981372;28;20033;-78
2021/03/24 10:53:05;;;;;;;47.00;22.00;;;11.80;82.20;;;;;;4980961;28;20124;-76
2021/03/24 10:55:33;;;;;;;47.05;21.17;;;11.80;82.90;;;;;;4987969;28;20026;-75
2021/03/24 10:58:08;;;;;;;46.35;21.42;;;11.80;82.20;;;;;;4984887;28;20488;-75
2021/03/24 11:00:36;;;;;;;49.13;21.60;;;11.80;82.90;;;;;;4987909;28;20070;-75
2021/03/24 11:03:23;;;;;;;46.08;21.15;;;11.80;83.80;;;;;;4963365;28;20057;-75
2021/03/24 11:06:04;;;;;;;47.45;21.55;;;11.80;84.10;;;;;;4980143;28;20465;-75
2021/03/24 11:09:15;;;;;;;45.67;20.20;;;11.90;82.60;;;;;;4986756;28;20030;-75
2021/03/24 11:11:53;;;;;;;41.85;20.13;;;12.00;81.20;;;;;;4982120;28;20078;-75
2021/03/24 11:14:22;;;;;;;38.78;18.60;;;12.10;80.10;;;;;;4976082;28;20081;-78
2021/03/24 11:16:56;;;;;;;38.08;18.33;;;12.00;79.20;;;;;;4979887;28;20046;-76
2021/03/24 11:19:39;;;;;;;37.53;18.42;;;12.00;79.10;;;;;;4983436;28;20026;-81
2021/03/24 11:22:09;;;;;;;39.70;18.98;;;11.90;78.60;;;;;;4982785;28;20038;-79
2021/03/24 11:25:01;;;;;;;39.20;18.67;;;12.00;79.40;;;;;;4983465;28;20295;-79
2021/03/24 11:28:00;;;;;;;43.58;19.08;;;12.10;78.40;;;;;;4980461;28;20473;-78
2021/03/24 11:30:42;;;;;;;43.30;18.40;;;12.10;76.90;;;;;;4979852;28;20077;-77
2021/03/24 11:33:14;;;;;;;;;;;12.00;78.20;;;;;;4973193;28;20058;-78
2021/03/24 11:36:14;;;;;;;37.17;18.10;;;12.00;77.40;;;;;;4974891;28;19921;-79
2021/03/24 11:39:09;;;;;;;38.72;19.17;;;12.10;77.10;;;;;;4983619;28;20022;-79
2021/03/24 11:41:39;;;;;;;45.13;19.17;;;12.40;77.30;;;;;;4961737;28;20042;-79
2021/03/24 11:44:07;;;;;;;37.50;18.70;;;12.50;77.00;;;;;;4979837;28;20038;-80
2021/03/24 11:47:01;;;;;;;40.53;18.45;;;12.70;78.20;;;;;;4975347;28;20030;-80
2021/03/24 11:49:33;;;;;;;37.05;19.58;;;12.80;77.80;;;;;;4977028;28;20026;-79
2021/03/24 11:52:29;;;;;;;44.30;20.42;;;13.00;77.10;;;;;;4989904;28;20025;-80
2021/03/24 11:55:21;;;;;;;45.13;20.77;;;13.00;75.60;;;;;;4971731;28;20030;-80
2021/03/24 11:58:01;;;;;;;34.97;17.95;;;13.00;74.50;;;;;;4983573;28;20037;-81
2021/03/24 12:00:52;;;;;;;39.97;19.98;;;12.90;75.10;;;;;;4973156;28;20032;-80
2021/03/24 12:03:50;;;;;;;42.40;19.83;;;12.90;76.00;;;;;;4967647;28;20045;-80
2021/03/24 12:06:27;;;;;;;38.70;18.65;;;13.00;77.30;;;;;;4904522;28;20034;-80
2021/03/24 12:09:10;;;;;;;35.47;17.95;;;13.40;73.00;;;;;;4979443;28;20378;-80
2021/03/24 12:11:39;;;;;;;38.80;18.15;;;13.60;71.10;;;;;;4981925;28;20027;-80
2021/03/24 12:14:11;;;;;;;32.05;16.27;;;13.50;72.60;;;;;;4978144;28;20039;-80
2021/03/24 12:16:46;;;;;;;33.70;16.92;;;13.90;70.00;;;;;;4979613;28;20035;-80
2021/03/24 12:19:31;;;;;;;32.58;17.15;;;13.80;68.40;;;;;;4974923;28;20023;-80
2021/03/24 12:22:34;;;;;;;34.38;16.83;;;14.10;67.50;;;;;;4955985;28;20398;-81
2021/03/24 12:25:15;;;;;;;34.45;17.55;;;14.00;68.30;;;;;;4933706;28;20389;-80
2021/03/24 12:27:50;;;;;;;33.70;16.98;;;14.10;69.40;;;;;;4985145;28;20031;-79
2021/03/24 12:30:29;;;;;;;32.42;17.08;;;15.20;64.90;;;;;;4974084;28;20030;-79
2021/03/24 12:33:03;;;;;;;32.55;16.83;;;16.20;62.80;;;;;;4985313;28;20058;-79
2021/03/24 12:35:29;;;;;;;32.22;16.52;;;17.20;59.30;;;;;;4966580;28;20045;-79
2021/03/24 12:38:12;;;;;;;32.13;16.73;;;18.00;56.70;;;;;;4986319;28;20026;-81
2021/03/24 12:40:57;;;;;;;31.27;17.63;;;18.60;54.80;;;;;;4972582;28;20474;-82
2021/03/24 12:43:38;;;;;;;31.23;17.42;;;19.10;52.30;;;;;;4983592;28;20042;-81
2021/03/24 12:46:16;;;;;;;30.23;16.97;;;19.40;50.50;;;;;;4972810;28;20117;-81
2021/03/24 12:48:50;;;;;;;35.90;16.33;;;19.80;49.90;;;;;;4977167;28;20365;-80
2021/03/24 12:51:42;;;;;;;30.83;15.88;;;19.70;49.00;;;;;;4977243;28;20057;-80
2021/03/24 12:54:10;;;;;;;29.92;17.35;;;19.80;48.50;;;;;;4978663;28;20133;-80
2021/03/24 12:56:42;;;;;;;27.52;16.20;;;20.20;47.50;;;;;;4981710;28;20054;-80
2021/03/24 12:59:27;;;;;;;30.77;15.50;;;19.80;47.40;;;;;;4977219;28;20031;-80
2021/03/24 13:02:11;;;;;;;31.63;18.08;;;19.50;47.30;;;;;;4977217;28;20515;-79
2021/03/24 13:04:54;;;;;;;32.05;17.67;;;18.40;50.10;;;;;;4972899;28;20023;-80
2021/03/24 13:07:39;;;;;;;28.77;17.05;;;18.50;49.70;;;;;;4973221;28;20038;-81
2021/03/24 13:10:24;;;;;;;31.52;17.85;;;19.10;49.00;;;;;;4982469;28;20015;-80
2021/03/24 13:13:18;;;;;;;28.98;16.98;;;19.90;47.60;;;;;;4981232;28;20489;-80
2021/03/24 13:15:59;;;;;;;27.85;15.95;;;20.30;46.30;;;;;;4981456;28;20034;-80
2021/03/24 13:18:40;;;;;;;32.42;16.98;;;19.70;47.30;;;;;;4979804;28;20773;-80
2021/03/24 13:21:18;;;;;;;28.85;17.40;;;19.50;47.60;;;;;;4972964;28;20069;-82
2021/03/24 13:24:13;;;;;;;27.88;16.45;;;19.20;49.00;;;;;;4979404;28;20037;-82
2021/03/24 13:26:40;;;;;;;26.95;15.90;;;19.30;48.20;;;;;;4977368;28;20628;-80
2021/03/24 13:29:11;;;;;;;30.40;17.15;;;19.80;49.00;;;;;;4974937;28;20118;-81
2021/03/24 13:31:51;;;;;;;26.92;15.90;;;19.70;48.30;;;;;;4972319;28;20512;-80
2021/03/24 13:34:44;;;;;;;27.55;16.48;;;20.50;46.00;;;;;;4978620;28;20045;-81
2021/03/24 13:37:20;;;;;;;39.80;18.17;;;21.10;45.40;;;;;;4969957;28;20036;-81